SIF weather

Public forecast

Using degrees Fahrenheit for public forecast. Weather courtesy of forecast.io.

Current aviation weather report (METAR) for Rockingham County NC Shiloh Airport

Retrieved 2020/08/13 02:35 UTC (0 seconds ago):

KSIF 130235Z AUTO 00000KT 7SM CLR 21/21 A3006 RMK AO2 T02140208

Closest aviation forecast (TAF) to Rockingham County NC Shiloh Airport

Closest forecast is Piedmont Triad International Airport, 20.8 nm (38.5 km) SSW. Retrieved 2020-08-13 00:24 UTC (2 hours ago):

TAF KGSO 122320Z 1300/1324 VRB05KT P6SM SCT050 BKN250 FM130900 VRB04KT 5SM BR SCT005 FM131400 04005KT P6SM SCT015 SCT035 FM131800 07005KT P6SM VCSH BKN050